Time;durP1;ratioP1;P1;durP2;ratioP2;P2;SDS_P1;SDS_P2;PMS_P1;PMS_P2;Temp;Humidity;BMP_temperature;BMP_pressure;BME280_temperature;BME280_humidity;BME280_pressure;Samples;Min_cycle;Max_cycle;Signal;HPM_P1;HPM_P2
2022/05/30 00:01:35;;;;;;;3.57;2.73;;;9.70;99.90;;;;;;5118315;28;20464;-57
2022/05/30 00:04:03;;;;;;;3.70;3.40;;;9.60;99.90;;;;;;5118566;28;20431;-57
2022/05/30 00:06:31;;;;;;;6.37;3.60;;;9.70;99.90;;;;;;5117872;28;20533;-58
2022/05/30 00:08:59;;;;;;;3.73;3.40;;;9.60;99.90;;;;;;5118182;28;20549;-58
2022/05/30 00:11:27;;;;;;;5.90;3.43;;;9.40;99.90;;;;;;5118972;28;20550;-58
2022/05/30 00:13:55;;;;;;;4.37;3.20;;;9.40;99.90;;;;;;5118144;28;20451;-58
2022/05/30 00:16:24;;;;;;;2.77;2.57;;;9.40;99.90;;;;;;5118441;28;20897;-58
2022/05/30 00:18:51;;;;;;;4.33;3.27;;;9.40;99.90;;;;;;5117879;28;20472;-58
2022/05/30 00:21:20;;;;;;;5.93;3.40;;;9.30;99.90;;;;;;5117913;28;20442;-58
2022/05/30 00:23:49;;;;;;;4.60;3.70;;;9.30;99.90;;;;;;5117759;28;20442;-58
2022/05/30 00:26:17;;;;;;;4.17;3.77;;;9.50;99.90;;;;;;5117708;28;20465;-58
2022/05/30 00:28:44;;;;;;;5.33;3.67;;;9.50;99.90;;;;;;5117346;28;20882;-57
2022/05/30 00:31:15;;;;;;;4.33;3.20;;;9.50;99.90;;;;;;5117690;28;20534;-57
2022/05/30 00:33:43;;;;;;;4.70;3.70;;;9.50;99.90;;;;;;5117430;28;20441;-58
2022/05/30 00:36:11;;;;;;;4.63;4.33;;;9.60;99.90;;;;;;5117508;28;20484;-58
2022/05/30 00:38:39;;;;;;;6.33;3.90;;;9.80;99.90;;;;;;5117505;28;20537;-58
2022/05/30 00:41:08;;;;;;;4.60;4.30;;;9.90;99.90;;;;;;5117187;28;20454;-58
2022/05/30 00:43:37;;;;;;;4.47;4.13;;;10.00;99.90;;;;;;5117484;28;20503;-58
2022/05/30 00:46:12;;;;;;;4.93;3.57;;;10.10;99.90;;;;;;5116053;28;20502;-58
2022/05/30 00:48:43;;;;;;;3.53;3.20;;;10.10;99.90;;;;;;5117365;28;20488;-58
2022/05/30 00:51:15;;;;;;;5.20;3.43;;;10.10;99.90;;;;;;5117389;28;20438;-58
2022/05/30 00:53:44;;;;;;;5.80;4.23;;;10.20;99.90;;;;;;5117343;28;20431;-58
2022/05/30 00:56:15;;;;;;;4.23;3.60;;;10.10;99.90;;;;;;5116709;28;20486;-58
2022/05/30 00:58:46;;;;;;;4.90;4.40;;;10.10;99.90;;;;;;5116849;28;20549;-58
2022/05/30 01:01:14;;;;;;;4.70;3.90;;;10.00;99.90;;;;;;5116809;28;20442;-58
2022/05/30 01:06:35;;;;;;;12.10;5.83;;;10.00;99.90;;;;;;5116982;28;20414;-58
2022/05/30 01:09:11;;;;;;;6.10;3.80;;;10.00;99.90;;;;;;5116426;28;20466;-58
2022/05/30 01:11:52;;;;;;;5.47;4.87;;;10.00;99.90;;;;;;5116984;28;20445;-58
2022/05/30 01:14:19;;;;;;;4.77;4.37;;;10.00;99.90;;;;;;5117012;28;20478;-58
2022/05/30 01:16:47;;;;;;;4.10;3.70;;;10.00;99.90;;;;;;5116451;28;20478;-58
2022/05/30 01:19:25;;;;;;;4.57;4.20;;;10.00;99.90;;;;;;5116475;28;20462;-60
2022/05/30 01:22:07;;;;;;;4.50;4.10;;;10.00;99.90;;;;;;5116914;28;20453;-58
2022/05/30 01:24:45;;;;;;;4.17;3.63;;;9.90;99.90;;;;;;5116483;28;20423;-58
2022/05/30 01:27:25;;;;;;;4.40;4.00;;;10.00;99.90;;;;;;5116376;28;20419;-58
2022/05/30 01:29:57;;;;;;;7.40;4.47;;;9.90;99.90;;;;;;5116713;28;20515;-58
2022/05/30 01:32:25;;;;;;;4.57;4.20;;;9.90;99.90;;;;;;5116517;28;20517;-58
2022/05/30 01:34:52;;;;;;;4.53;3.80;;;9.90;99.90;;;;;;5116431;28;20450;-58
2022/05/30 01:37:19;;;;;;;4.50;4.10;;;9.90;99.90;;;;;;5116090;28;20485;-57
2022/05/30 01:39:46;;;;;;;4.20;3.90;;;9.80;99.90;;;;;;5116504;28;20615;-58
2022/05/30 01:42:15;;;;;;;9.20;5.47;;;9.80;99.90;;;;;;5116340;28;20446;-58
2022/05/30 01:44:42;;;;;;;4.80;4.30;;;9.80;99.90;;;;;;5116390;28;20459;-58
2022/05/30 01:47:11;;;;;;;8.53;3.87;;;9.80;99.90;;;;;;5115816;28;20474;-58
2022/05/30 01:49:38;;;;;;;4.57;3.90;;;9.70;99.90;;;;;;5116140;28;20494;-58
2022/05/30 01:52:06;;;;;;;4.30;3.90;;;9.70;99.90;;;;;;5115920;28;20447;-58
2022/05/30 01:54:33;;;;;;;5.77;4.10;;;9.40;99.90;;;;;;5115892;28;20442;-58
2022/05/30 01:57:01;;;;;;;4.50;4.10;;;9.20;99.90;;;;;;5115820;28;20484;-58
2022/05/30 01:59:28;;;;;;;4.33;3.97;;;9.10;99.90;;;;;;5116026;28;20554;-58
2022/05/30 02:01:55;;;;;;;4.03;3.73;;;9.10;99.90;;;;;;5115661;28;20962;-58
2022/05/30 02:04:24;;;;;;;4.47;4.03;;;9.00;99.90;;;;;;5115673;28;20982;-58
2022/05/30 02:06:51;;;;;;;4.63;4.07;;;8.90;99.90;;;;;;5115907;28;20464;-58
2022/05/30 02:09:18;;;;;;;5.17;4.23;;;9.00;99.90;;;;;;5115479;28;20493;-58
2022/05/30 02:11:45;;;;;;;4.30;4.00;;;9.20;99.90;;;;;;5115822;28;20442;-58
2022/05/30 02:14:13;;;;;;;4.80;4.30;;;9.30;99.90;;;;;;5115959;27;20952;-58
2022/05/30 02:19:26;;;;;;;5.13;4.73;;;9.00;99.90;;;;;;5114453;28;20442;-58
2022/05/30 02:21:53;;;;;;;7.50;4.60;;;8.90;99.90;;;;;;5115571;28;20450;-58
2022/05/30 02:24:21;;;;;;;5.70;3.67;;;8.90;99.90;;;;;;5115217;28;20447;-58
2022/05/30 02:26:48;;;;;;;5.60;3.93;;;8.90;99.90;;;;;;5099247;28;20812;-58
2022/05/30 02:29:16;;;;;;;4.10;3.80;;;9.00;99.90;;;;;;5094959;28;20474;-58
2022/05/30 02:31:43;;;;;;;4.37;3.77;;;8.90;99.90;;;;;;5094640;28;21021;-58
2022/05/30 02:36:57;;;;;;;4.27;3.60;;;9.00;99.90;;;;;;5094914;28;20463;-58
2022/05/30 02:39:26;;;;;;;5.27;3.67;;;9.20;99.90;;;;;;5094448;28;20469;-58
2022/05/30 02:41:53;;;;;;;5.13;3.97;;;9.20;99.90;;;;;;5094768;28;20448;-58
2022/05/30 02:44:23;;;;;;;4.37;3.97;;;9.10;99.90;;;;;;5094835;28;20455;-58
2022/05/30 02:46:52;;;;;;;6.50;4.20;;;9.10;99.90;;;;;;5094224;28;20978;-58
2022/05/30 02:49:20;;;;;;;5.30;4.57;;;9.10;99.90;;;;;;5094605;28;20464;-59
2022/05/30 02:51:48;;;;;;;4.07;3.77;;;9.20;99.90;;;;;;5094513;28;20471;-58
2022/05/30 02:54:17;;;;;;;4.37;3.90;;;9.20;99.90;;;;;;5094305;28;20447;-58
2022/05/30 02:56:49;;;;;;;5.30;3.97;;;9.20;99.90;;;;;;5109224;28;20983;-58
2022/05/30 02:59:17;;;;;;;4.07;3.67;;;9.30;99.90;;;;;;5114901;28;20467;-58
2022/05/30 03:01:44;;;;;;;3.90;3.60;;;9.10;99.90;;;;;;5115783;28;20443;-58
2022/05/30 03:04:11;;;;;;;4.27;3.93;;;8.80;99.90;;;;;;5114912;28;20449;-58
2022/05/30 03:06:39;;;;;;;5.30;4.50;;;8.70;99.90;;;;;;5114416;28;20439;-59
2022/05/30 03:09:07;;;;;;;4.67;4.27;;;8.70;99.90;;;;;;5114600;28;20465;-58
2022/05/30 03:11:35;;;;;;;5.20;4.70;;;8.80;99.90;;;;;;5114716;28;20439;-58
2022/05/30 03:14:03;;;;;;;5.30;3.80;;;8.80;99.90;;;;;;5114516;28;20458;-58
2022/05/30 03:16:30;;;;;;;5.67;4.30;;;8.90;99.90;;;;;;5114657;28;20478;-58
2022/05/30 03:18:57;;;;;;;6.80;5.30;;;8.90;99.90;;;;;;5114505;28;20466;-58
2022/05/30 03:21:25;;;;;;;3.97;3.67;;;8.90;99.90;;;;;;5114180;28;20806;-58
2022/05/30 03:23:53;;;;;;;7.10;4.97;;;9.00;99.90;;;;;;5115308;28;20449;-58
2022/05/30 03:26:20;;;;;;;5.20;4.70;;;9.00;99.90;;;;;;5114316;28;20790;-58
2022/05/30 03:28:49;;;;;;;8.93;5.47;;;9.00;99.90;;;;;;5114274;28;20463;-58
2022/05/30 03:31:16;;;;;;;8.57;5.50;;;9.10;99.90;;;;;;5114065;28;20453;-58
2022/05/30 03:33:43;;;;;;;6.73;4.40;;;9.00;99.90;;;;;;5114405;28;20450;-58
2022/05/30 03:36:16;;;;;;;6.07;5.47;;;8.80;99.90;;;;;;5115103;28;20486;-58
2022/05/30 03:38:43;;;;;;;4.47;4.07;;;8.60;99.90;;;;;;5114854;28;20466;-58
2022/05/30 03:41:11;;;;;;;5.30;4.80;;;8.50;99.90;;;;;;5113984;28;20453;-58
2022/05/30 03:43:38;;;;;;;7.20;4.90;;;8.40;99.90;;;;;;5114241;28;20539;-58
2022/05/30 03:46:06;;;;;;;4.77;4.37;;;8.50;99.90;;;;;;5114162;28;20474;-58
2022/05/30 03:48:33;;;;;;;8.00;4.50;;;8.50;99.90;;;;;;5113920;28;20498;-58
2022/05/30 03:51:03;;;;;;;5.67;4.67;;;8.70;99.90;;;;;;5115198;28;20443;-58
2022/05/30 03:53:30;;;;;;;5.67;4.50;;;8.70;99.90;;;;;;5114179;28;20443;-59
2022/05/30 03:55:57;;;;;;;5.00;4.60;;;8.80;99.90;;;;;;5113964;28;20446;-59
2022/05/30 03:58:25;;;;;;;6.40;4.80;;;8.80;99.90;;;;;;5114246;28;20898;-59
2022/05/30 04:00:52;;;;;;;4.67;4.30;;;8.50;99.90;;;;;;5114099;28;20465;-58
2022/05/30 04:03:25;;;;;;;5.53;5.00;;;8.40;99.90;;;;;;5113997;28;20448;-58
2022/05/30 04:05:52;;;;;;;7.20;4.80;;;8.40;99.90;;;;;;5113706;28;20984;-58
2022/05/30 04:08:19;;;;;;;6.20;5.20;;;8.50;99.90;;;;;;5113579;28;20959;-58
2022/05/30 04:10:47;;;;;;;8.17;5.40;;;8.60;99.90;;;;;;5113997;28;20447;-58
2022/05/30 04:13:14;;;;;;;5.20;4.70;;;8.70;99.90;;;;;;5113651;28;20450;-58
2022/05/30 04:15:41;;;;;;;8.43;4.60;;;8.70;99.90;;;;;;5113899;28;20427;-58
2022/05/30 04:18:08;;;;;;;5.47;4.97;;;8.80;99.90;;;;;;5113760;28;20489;-58
2022/05/30 04:20:37;;;;;;;6.57;4.50;;;8.90;99.90;;;;;;5113900;28;20449;-58
2022/05/30 04:23:04;;;;;;;6.87;6.17;;;8.70;99.90;;;;;;5113688;28;20542;-58
2022/05/30 04:25:31;;;;;;;7.47;5.60;;;8.60;99.90;;;;;;5113635;28;20451;-58
2022/05/30 04:27:59;;;;;;;7.50;6.80;;;8.60;99.90;;;;;;5113796;28;20439;-58
2022/05/30 04:30:26;;;;;;;5.10;4.70;;;8.70;99.90;;;;;;5113702;28;20488;-58
2022/05/30 04:32:53;;;;;;;5.63;5.13;;;8.90;99.90;;;;;;5113942;28;20454;-58
2022/05/30 04:35:21;;;;;;;6.60;6.00;;;9.00;99.90;;;;;;5113771;28;20470;-58
2022/05/30 04:37:50;;;;;;;6.80;5.53;;;9.10;99.90;;;;;;5113675;28;20484;-58
2022/05/30 04:40:19;;;;;;;10.40;5.37;;;9.10;99.90;;;;;;5113736;28;20462;-58
2022/05/30 04:42:46;;;;;;;5.23;4.87;;;9.10;99.90;;;;;;5115113;28;20806;-58
2022/05/30 04:45:14;;;;;;;5.23;4.53;;;9.10;99.90;;;;;;5117234;28;20940;-58
2022/05/30 04:47:42;;;;;;;6.17;5.57;;;9.20;99.90;;;;;;5117088;28;20834;-58
2022/05/30 04:50:14;;;;;;;6.03;5.43;;;9.20;99.90;;;;;;5117304;28;20489;-58
2022/05/30 04:52:41;;;;;;;5.70;5.10;;;9.30;99.90;;;;;;5117573;28;20430;-59
2022/05/30 04:55:11;;;;;;;6.93;5.53;;;9.30;99.90;;;;;;5117131;28;20798;-58
2022/05/30 04:57:43;;;;;;;5.97;5.07;;;9.30;99.90;;;;;;5117225;28;20473;-58
2022/05/30 05:00:12;;;;;;;6.30;5.70;;;9.30;99.90;;;;;;5117193;28;20502;-58
2022/05/30 05:02:39;;;;;;;5.37;4.87;;;9.30;99.90;;;;;;5116834;28;20538;-58
2022/05/30 05:05:08;;;;;;;5.73;5.23;;;9.30;99.90;;;;;;5116815;28;20806;-58
2022/05/30 05:07:40;;;;;;;5.90;5.30;;;9.30;99.90;;;;;;5116897;28;20446;-58
2022/05/30 05:10:35;;;;;;;9.17;5.93;;;9.40;99.90;;;;;;5116566;28;20553;-58
2022/05/30 05:13:02;;;;;;;7.20;6.30;;;9.40;99.90;;;;;;5116504;28;20961;-58
2022/05/30 05:15:29;;;;;;;6.77;5.60;;;9.40;99.90;;;;;;5116573;28;20952;-58
2022/05/30 05:17:56;;;;;;;6.47;5.77;;;9.40;99.90;;;;;;5116637;28;20482;-59
2022/05/30 05:20:24;;;;;;;7.27;6.20;;;9.50;99.90;;;;;;5116589;28;20466;-58
2022/05/30 05:22:51;;;;;;;6.50;5.87;;;9.50;99.90;;;;;;5116533;28;20841;-58
2022/05/30 05:25:19;;;;;;;7.00;5.77;;;9.60;99.90;;;;;;5116147;28;20446;-58
2022/05/30 05:27:49;;;;;;;6.70;6.10;;;9.60;99.90;;;;;;5116447;28;20444;-58
2022/05/30 05:30:16;;;;;;;6.30;5.77;;;9.70;99.90;;;;;;5116843;28;20557;-58
2022/05/30 05:32:44;;;;;;;8.10;6.60;;;9.60;99.90;;;;;;5116400;28;20447;-58
2022/05/30 05:35:11;;;;;;;6.73;6.13;;;9.70;99.90;;;;;;5116449;28;20442;-59
2022/05/30 05:37:38;;;;;;;23.23;8.03;;;9.70;99.90;;;;;;5116267;28;20474;-59
2022/05/30 05:40:07;;;;;;;6.87;6.17;;;9.80;99.90;;;;;;5116187;28;20468;-58
2022/05/30 05:42:34;;;;;;;7.63;6.40;;;9.90;99.90;;;;;;5116005;28;20924;-58
2022/05/30 05:45:03;;;;;;;7.47;6.73;;;9.90;99.90;;;;;;5116327;28;20541;-58
2022/05/30 05:47:30;;;;;;;8.20;6.40;;;9.90;99.90;;;;;;5115699;28;20477;-58
2022/05/30 05:49:57;;;;;;;6.43;5.93;;;10.10;99.90;;;;;;5115849;28;20458;-57
2022/05/30 05:52:28;;;;;;;6.83;6.23;;;10.10;99.90;;;;;;5115841;28;20450;-58
2022/05/30 05:54:56;;;;;;;7.87;7.17;;;10.10;99.90;;;;;;5115805;28;20431;-58
2022/05/30 05:57:25;;;;;;;10.77;6.73;;;10.10;99.90;;;;;;5115413;28;20884;-58
2022/05/30 05:59:52;;;;;;;7.57;6.43;;;10.20;99.90;;;;;;5115564;28;20470;-58
2022/05/30 06:02:22;;;;;;;7.30;6.60;;;10.30;99.90;;;;;;5115569;28;20766;-58
2022/05/30 06:04:52;;;;;;;8.00;7.30;;;10.40;99.90;;;;;;5115559;28;20447;-58
2022/05/30 06:07:22;;;;;;;7.80;7.03;;;10.40;99.90;;;;;;5116096;28;20488;-58
2022/05/30 06:09:50;;;;;;;9.00;6.60;;;10.50;99.90;;;;;;5115680;28;20868;-58
2022/05/30 06:12:18;;;;;;;8.87;6.90;;;10.50;99.90;;;;;;5115705;28;20454;-58
2022/05/30 06:14:46;;;;;;;18.57;7.20;;;10.60;99.90;;;;;;5115589;28;20481;-58
2022/05/30 06:17:13;;;;;;;6.90;6.30;;;10.60;99.90;;;;;;5115449;28;20896;-58
2022/05/30 06:19:42;;;;;;;7.40;6.80;;;10.70;99.90;;;;;;5115430;28;20512;-59
2022/05/30 06:22:10;;;;;;;7.97;7.07;;;10.70;99.90;;;;;;5115073;28;20457;-58
2022/05/30 06:24:37;;;;;;;8.20;7.50;;;10.80;99.90;;;;;;5115070;28;20526;-59
2022/05/30 06:27:06;;;;;;;8.97;7.67;;;10.80;99.90;;;;;;5114766;28;20941;-59
2022/05/30 06:29:33;;;;;;;10.87;7.53;;;10.90;99.90;;;;;;5115196;28;20557;-59
2022/05/30 06:32:01;;;;;;;8.07;7.03;;;11.00;99.90;;;;;;5114954;28;20469;-59
2022/05/30 06:34:28;;;;;;;9.50;8.00;;;11.00;99.90;;;;;;5114850;28;20460;-59
2022/05/30 06:36:57;;;;;;;11.10;7.20;;;11.10;99.90;;;;;;5114703;28;20533;-59
2022/05/30 06:39:24;;;;;;;8.17;7.50;;;11.10;99.90;;;;;;5114861;28;20466;-59
2022/05/30 06:41:53;;;;;;;11.73;7.47;;;11.30;99.90;;;;;;5114495;28;20446;-59
2022/05/30 06:44:21;;;;;;;10.13;6.90;;;11.30;99.90;;;;;;5115490;28;20477;-58
2022/05/30 06:46:48;;;;;;;6.97;6.37;;;11.50;99.90;;;;;;5114143;28;20493;-58
2022/05/30 06:49:17;;;;;;;8.77;7.13;;;11.50;99.90;;;;;;5114280;28;20468;-58
2022/05/30 06:51:51;;;;;;;8.73;7.80;;;11.50;99.90;;;;;;5114190;28;20537;-59
2022/05/30 06:54:29;;;;;;;9.27;7.93;;;11.50;99.90;;;;;;5114066;28;20890;-59
2022/05/30 06:59:41;;;;;;;7.93;6.80;;;11.70;99.90;;;;;;5114063;28;20778;-59
2022/05/30 07:02:09;;;;;;;8.20;7.40;;;11.70;99.90;;;;;;5113796;28;20443;-60
2022/05/30 07:04:37;;;;;;;11.43;7.20;;;11.70;99.90;;;;;;5113932;28;20859;-59
2022/05/30 07:07:05;;;;;;;18.77;7.17;;;11.90;99.90;;;;;;5113549;28;20490;-58
2022/05/30 07:09:35;;;;;;;9.87;6.77;;;12.30;99.90;;;;;;5114060;28;20466;-59
2022/05/30 07:12:02;;;;;;;9.07;5.90;;;12.90;99.90;;;;;;5113855;28;20485;-59
2022/05/30 07:14:30;;;;;;;11.40;5.57;;;13.80;99.90;;;;;;5114134;28;20451;-58
2022/05/30 07:16:57;;;;;;;5.60;5.20;;;14.40;99.90;;;;;;5113749;28;20446;-59
2022/05/30 07:19:24;;;;;;;6.20;5.70;;;15.10;99.90;;;;;;5113919;28;20502;-59
2022/05/30 07:21:51;;;;;;;5.80;5.30;;;15.60;99.90;;;;;;5113735;28;20541;-59
2022/05/30 07:24:21;;;;;;;8.20;5.80;;;15.80;99.90;;;;;;5114770;28;20786;-59
2022/05/30 07:26:50;;;;;;;5.80;4.50;;;16.20;99.90;;;;;;5114359;28;20913;-58
2022/05/30 07:29:17;;;;;;;4.93;4.53;;;16.60;99.90;;;;;;5113467;28;20885;-59
2022/05/30 07:31:45;;;;;;;6.20;4.70;;;16.60;99.90;;;;;;5113956;28;20526;-58
2022/05/30 07:34:12;;;;;;;4.90;4.10;;;17.00;99.10;;;;;;5114013;28;20492;-58
2022/05/30 07:36:39;;;;;;;13.60;4.07;;;16.70;98.70;;;;;;5113609;28;20522;-58
2022/05/30 07:39:06;;;;;;;5.00;4.30;;;17.60;99.20;;;;;;5114318;28;20486;-58
2022/05/30 07:41:38;;;;;;;6.47;4.60;;;18.00;98.30;;;;;;5113986;28;20509;-58
2022/05/30 07:44:07;;;;;;;3.93;3.50;;;18.10;97.20;;;;;;5114337;28;20511;-58
2022/05/30 07:46:35;;;;;;;4.67;4.00;;;18.80;96.60;;;;;;5113586;28;20486;-59
2022/05/30 07:49:03;;;;;;;6.40;4.03;;;19.00;95.60;;;;;;5114550;28;20754;-58
2022/05/30 07:51:30;;;;;;;4.43;3.43;;;18.80;95.50;;;;;;5113440;28;20478;-59
2022/05/30 07:53:59;;;;;;;4.40;3.90;;;19.10;95.90;;;;;;5113566;28;20913;-58
2022/05/30 07:56:26;;;;;;;7.63;4.17;;;19.70;95.40;;;;;;5113765;28;20461;-59
2022/05/30 07:58:54;;;;;;;6.63;3.87;;;19.70;93.50;;;;;;5113672;28;20561;-58
2022/05/30 08:01:23;;;;;;;7.20;4.00;;;19.10;93.50;;;;;;5113419;28;20537;-58
2022/05/30 08:03:52;;;;;;;4.30;3.67;;;19.80;93.00;;;;;;5113779;28;20884;-58
2022/05/30 08:06:21;;;;;;;4.60;3.83;;;20.20;92.10;;;;;;5113759;28;20441;-58
2022/05/30 08:08:49;;;;;;;8.07;4.00;;;20.50;92.40;;;;;;5113671;28;20549;-58
2022/05/30 08:11:17;;;;;;;4.03;3.40;;;20.10;90.20;;;;;;5114396;28;20493;-58
2022/05/30 08:13:45;;;;;;;3.47;2.80;;;19.90;91.90;;;;;;5113742;28;20565;-58
2022/05/30 08:16:13;;;;;;;3.23;2.93;;;21.00;91.40;;;;;;5113670;28;20453;-58
2022/05/30 08:18:42;;;;;;;6.70;3.33;;;20.90;89.70;;;;;;5116450;28;21048;-58
2022/05/30 08:21:09;;;;;;;3.47;3.10;;;20.90;87.00;;;;;;5117432;28;20870;-58
2022/05/30 08:23:36;;;;;;;3.70;2.90;;;21.10;87.60;;;;;;5117400;28;20537;-58
2022/05/30 08:26:04;;;;;;;5.40;3.27;;;20.80;89.10;;;;;;5117317;28;20518;-58
2022/05/30 08:28:31;;;;;;;2.70;2.50;;;21.50;84.00;;;;;;5117316;28;20527;-58
2022/05/30 08:30:58;;;;;;;4.40;2.70;;;22.00;83.00;;;;;;5117071;28;20442;-58
2022/05/30 08:33:26;;;;;;;2.77;2.53;;;20.70;78.30;;;;;;5117261;28;20521;-58
2022/05/30 08:36:03;;;;;;;3.10;2.30;;;20.10;81.30;;;;;;5117481;28;20426;-58
2022/05/30 08:38:33;;;;;;;4.33;2.70;;;21.10;78.50;;;;;;5116873;28;20538;-58
2022/05/30 08:43:49;;;;;;;3.03;2.60;;;21.90;77.00;;;;;;5117347;28;20436;-58
2022/05/30 08:46:33;;;;;;;3.20;2.23;;;22.30;75.20;;;;;;5117114;28;20485;-58
2022/05/30 08:49:12;;;;;;;3.43;3.13;;;21.90;78.30;;;;;;5116581;28;20472;-58
2022/05/30 08:52:18;;;;;;;3.10;2.80;;;22.30;73.90;;;;;;5116785;28;20431;-58
2022/05/30 08:55:00;;;;;;;4.00;2.43;;;22.60;64.80;;;;;;5117449;28;20449;-62
2022/05/30 08:57:36;;;;;;;5.10;2.40;;;22.70;64.70;;;;;;5116908;28;20533;-58
2022/05/30 09:00:12;;;;;;;2.83;2.03;;;22.50;69.50;;;;;;5116686;28;20454;-59
2022/05/30 09:02:47;;;;;;;2.90;2.50;;;22.90;66.60;;;;;;5116806;28;20407;-58
2022/05/30 09:05:19;;;;;;;2.53;2.20;;;22.80;66.20;;;;;;5116948;28;20468;-58
2022/05/30 09:07:52;;;;;;;2.90;2.27;;;22.30;64.20;;;;;;5117434;28;20435;-59
2022/05/30 09:10:25;;;;;;;5.87;2.60;;;22.60;66.50;;;;;;5117314;28;20467;-59
2022/05/30 09:12:59;;;;;;;3.93;2.57;;;22.30;66.30;;;;;;5117236;28;20847;-59
2022/05/30 09:15:32;;;;;;;5.10;2.40;;;22.10;62.00;;;;;;5116642;28;20513;-58
2022/05/30 09:18:06;;;;;;;3.73;2.10;;;22.50;61.30;;;;;;5116312;28;20466;-58
2022/05/30 09:20:34;;;;;;;3.43;2.23;;;22.50;59.90;;;;;;5117017;28;20462;-59
2022/05/30 09:23:05;;;;;;;6.50;2.77;;;21.70;58.40;;;;;;5116330;28;20468;-58
2022/05/30 09:28:21;;;;;;;5.03;2.83;;;21.30;61.60;;;;;;5115969;28;20398;-59
2022/05/30 09:30:56;;;;;;;3.40;2.20;;;22.80;60.00;;;;;;5116557;28;20507;-59
2022/05/30 09:33:31;;;;;;;2.80;2.30;;;22.30;58.40;;;;;;5116318;28;20479;-59
2022/05/30 09:36:19;;;;;;;5.13;2.10;;;22.40;58.60;;;;;;5116095;28;20451;-58
2022/05/30 09:38:49;;;;;;;7.23;2.53;;;22.60;57.60;;;;;;5116000;28;20516;-59
2022/05/30 09:41:21;;;;;;;6.03;2.63;;;22.60;59.10;;;;;;5115848;28;20522;-59
2022/05/30 09:43:52;;;;;;;3.23;2.50;;;23.40;59.40;;;;;;5116212;28;20451;-59
2022/05/30 09:46:27;;;;;;;7.33;2.60;;;22.10;58.60;;;;;;5116052;28;20451;-59
2022/05/30 09:49:07;;;;;;;4.70;2.23;;;22.60;58.10;;;;;;5115535;28;20462;-58
2022/05/30 09:51:38;;;;;;;2.37;2.17;;;22.60;57.90;;;;;;5115858;28;20980;-58
2022/05/30 09:54:10;;;;;;;3.33;2.00;;;23.60;59.10;;;;;;5115602;28;20459;-58
2022/05/30 09:56:40;;;;;;;4.63;2.17;;;24.10;57.80;;;;;;5101790;28;20440;-58
2022/05/30 09:59:19;;;;;;;2.27;1.80;;;23.20;57.00;;;;;;5095218;28;20491;-58
2022/05/30 10:01:52;;;;;;;3.80;2.30;;;22.10;55.20;;;;;;5095304;28;20427;-58
2022/05/30 10:04:30;;;;;;;3.17;1.90;;;21.80;56.00;;;;;;5095499;28;20446;-59
2022/05/30 10:07:16;;;;;;;4.00;1.90;;;22.60;55.20;;;;;;5094867;28;20438;-59
2022/05/30 10:09:55;;;;;;;3.83;1.60;;;23.50;53.40;;;;;;5095803;28;20459;-59
2022/05/30 10:12:35;;;;;;;2.43;2.23;;;24.40;53.40;;;;;;5095127;28;20427;-59
2022/05/30 10:15:23;;;;;;;2.30;1.90;;;24.40;52.60;;;;;;5095192;28;20451;-58
2022/05/30 10:17:50;;;;;;;2.47;2.10;;;24.40;54.20;;;;;;5094509;28;20926;-59
2022/05/30 10:20:26;;;;;;;6.13;2.43;;;23.90;53.00;;;;;;5094372;28;20491;-59
2022/05/30 10:28:56;;;;;;;4.50;2.10;;;24.10;50.90;;;;;;5094797;28;20578;-58
2022/05/30 10:31:33;;;;;;;7.43;2.03;;;24.50;53.00;;;;;;5094383;28;20450;-58
2022/05/30 10:34:21;;;;;;;3.33;1.97;;;24.20;49.90;;;;;;5094480;28;20432;-59
2022/05/30 10:37:04;;;;;;;3.13;1.80;;;23.60;50.50;;;;;;5094664;28;20436;-58
2022/05/30 10:39:56;;;;;;;4.07;2.30;;;23.50;51.70;;;;;;5094072;28;20586;-58
2022/05/30 10:42:29;;;;;;;2.57;1.60;;;24.60;52.00;;;;;;5094672;28;20985;-58
2022/05/30 10:45:01;;;;;;;2.53;2.07;;;24.50;51.20;;;;;;5094877;28;20463;-58
2022/05/30 10:47:38;;;;;;;2.87;2.27;;;24.50;50.20;;;;;;5094132;28;20489;-58
2022/05/30 10:50:10;;;;;;;2.17;1.90;;;25.00;49.50;;;;;;5094160;28;20816;-59
2022/05/30 10:52:41;;;;;;;2.80;1.73;;;25.20;50.10;;;;;;5094008;28;20949;-58
2022/05/30 10:55:14;;;;;;;2.43;1.80;;;25.50;49.40;;;;;;5094132;28;20460;-58
2022/05/30 10:57:45;;;;;;;2.40;1.63;;;25.70;48.60;;;;;;5095218;28;20432;-59
2022/05/30 11:00:14;;;;;;;2.67;1.97;;;23.50;46.90;;;;;;5094514;28;20513;-59
2022/05/30 11:02:55;;;;;;;6.43;1.80;;;24.20;48.70;;;;;;5094030;28;20444;-59
2022/05/30 11:05:26;;;;;;;5.77;2.67;;;25.30;47.20;;;;;;5094140;28;20514;-59
2022/05/30 11:08:01;;;;;;;2.10;1.70;;;25.60;47.90;;;;;;5093994;28;20428;-58
2022/05/30 11:10:39;;;;;;;2.60;1.67;;;25.10;46.50;;;;;;5094008;28;20459;-59
2022/05/30 11:13:15;;;;;;;3.73;1.90;;;25.20;45.60;;;;;;5094216;28;20459;-59
2022/05/30 11:15:48;;;;;;;2.80;1.77;;;24.00;46.80;;;;;;5093659;28;20435;-59
2022/05/30 11:18:24;;;;;;;2.93;1.83;;;24.60;47.20;;;;;;5094172;28;20787;-59
2022/05/30 11:21:03;;;;;;;1.60;1.50;;;24.80;46.70;;;;;;5093714;28;20431;-59
2022/05/30 11:23:30;;;;;;;2.47;1.97;;;24.20;46.40;;;;;;5093972;28;20446;-59
2022/05/30 11:26:15;;;;;;;2.60;2.33;;;25.50;47.20;;;;;;5093752;28;20447;-59
2022/05/30 11:29:05;;;;;;;2.00;1.80;;;25.50;46.00;;;;;;5093650;28;20466;-59
2022/05/30 11:31:40;;;;;;;2.83;2.10;;;25.00;46.60;;;;;;5093357;28;20432;-59
2022/05/30 11:34:40;;;;;;;4.10;2.33;;;23.90;44.60;;;;;;5094452;28;20815;-59
2022/05/30 11:37:39;;;;;;;2.70;2.27;;;24.20;46.70;;;;;;5088984;28;20443;-59
2022/05/30 11:40:17;;;;;;;2.57;1.77;;;23.10;45.60;;;;;;5093299;28;20490;-59
2022/05/30 11:42:54;;;;;;;3.43;2.17;;;23.00;46.70;;;;;;5093631;28;20514;-59
2022/05/30 11:45:43;;;;;;;2.00;1.60;;;24.60;46.00;;;;;;5093458;28;20463;-60
2022/05/30 11:48:18;;;;;;;2.70;1.90;;;25.40;47.50;;;;;;5093266;28;20464;-59
2022/05/30 11:50:53;;;;;;;2.10;1.90;;;26.30;44.30;;;;;;5093714;28;20423;-58
2022/05/30 11:53:46;;;;;;;4.63;2.43;;;26.20;44.50;;;;;;5099695;28;20513;-62
2022/05/30 11:56:19;;;;;;;3.73;2.33;;;26.80;44.70;;;;;;5099604;28;20456;-58
2022/05/30 11:59:11;;;;;;;2.17;1.93;;;26.00;42.50;;;;;;5099644;28;20570;-59
2022/05/30 12:01:44;;;;;;;6.13;2.40;;;25.10;45.20;;;;;;5098094;28;21000;-58
2022/05/30 12:04:37;;;;;;;3.60;1.77;;;23.50;44.60;;;;;;5100506;28;20451;-59
2022/05/30 12:07:27;;;;;;;2.80;2.20;;;22.10;44.70;;;;;;5100048;28;20621;-59
2022/05/30 12:10:12;;;;;;;5.43;2.23;;;21.80;46.40;;;;;;5099862;28;20876;-59
2022/05/30 12:12:54;;;;;;;3.07;2.70;;;21.80;46.40;;;;;;5100221;28;20514;-59
2022/05/30 12:16:04;;;;;;;2.33;2.13;;;21.80;46.50;;;;;;5099714;28;20442;-59
2022/05/30 12:25:42;;;;;;;4.50;2.20;;;24.00;45.60;;;;;;5042836;28;20430;-58
2022/05/30 12:28:48;;;;;;;3.70;2.57;;;25.00;45.70;;;;;;5099700;28;20507;-59
2022/05/30 12:31:34;;;;;;;2.63;2.43;;;25.20;44.50;;;;;;5099563;28;20811;-59
2022/05/30 12:34:02;;;;;;;2.47;2.27;;;24.40;44.10;;;;;;5099560;28;20500;-59
2022/05/30 12:36:41;;;;;;;3.27;1.90;;;23.40;43.50;;;;;;5100291;28;20910;-58
2022/05/30 12:39:34;;;;;;;2.23;2.03;;;22.10;44.30;;;;;;5099732;28;20551;-58
2022/05/30 12:42:08;;;;;;;3.00;1.97;;;22.40;44.40;;;;;;5101037;28;20467;-58
2022/05/30 12:44:57;;;;;;;2.43;1.90;;;22.60;43.70;;;;;;5099821;28;20545;-58
2022/05/30 12:47:31;;;;;;;3.20;2.10;;;22.90;44.80;;;;;;5099352;28;20482;-58
2022/05/30 12:50:43;;;;;;;3.60;2.43;;;22.60;43.60;;;;;;5100175;28;20455;-59
2022/05/30 12:53:11;;;;;;;2.27;2.07;;;22.90;44.40;;;;;;5089249;28;20954;-58
2022/05/30 12:55:42;;;;;;;2.17;1.90;;;22.00;44.40;;;;;;5099198;28;20483;-58
2022/05/30 12:58:11;;;;;;;2.30;2.10;;;22.60;46.30;;;;;;5099309;28;20785;-58
2022/05/30 13:00:52;;;;;;;5.50;2.50;;;21.60;45.50;;;;;;5099616;28;20479;-58
2022/05/30 13:03:36;;;;;;;2.83;2.53;;;21.60;46.10;;;;;;5096968;28;20463;-58
2022/05/30 13:06:14;;;;;;;2.63;2.23;;;21.70;45.60;;;;;;5096752;28;20428;-58
2022/05/30 13:09:13;;;;;;;2.80;2.00;;;22.80;45.60;;;;;;5095981;28;20455;-58
2022/05/30 13:12:17;;;;;;;2.20;1.80;;;23.60;45.00;;;;;;5096025;28;20783;-58
2022/05/30 13:15:21;;;;;;;2.20;2.00;;;24.00;44.90;;;;;;5095840;28;20466;-58
2022/05/30 13:17:57;;;;;;;2.60;1.97;;;24.00;45.20;;;;;;5096266;28;20439;-59
2022/05/30 13:20:30;;;;;;;4.07;2.30;;;23.70;44.20;;;;;;5096029;28;20493;-58
2022/05/30 13:23:00;;;;;;;2.20;2.00;;;23.30;43.60;;;;;;5095872;28;20457;-58
2022/05/30 13:25:30;;;;;;;2.40;2.07;;;23.30;43.50;;;;;;5096010;28;20514;-58
2022/05/30 13:28:04;;;;;;;3.37;2.33;;;23.60;45.30;;;;;;5095745;28;20475;-58
2022/05/30 13:30:33;;;;;;;3.00;2.23;;;22.60;44.30;;;;;;5095698;28;20428;-58
2022/05/30 13:33:01;;;;;;;2.93;1.83;;;22.70;44.60;;;;;;5095603;28;20997;-58
2022/05/30 13:35:32;;;;;;;2.20;2.00;;;22.60;43.80;;;;;;5095502;28;20554;-57
2022/05/30 13:38:02;;;;;;;2.20;2.00;;;21.70;43.40;;;;;;5096295;28;20886;-57
2022/05/30 13:40:31;;;;;;;2.47;2.20;;;21.60;44.30;;;;;;5094941;28;20487;-57
2022/05/30 13:43:01;;;;;;;4.67;2.17;;;21.80;43.90;;;;;;5095266;28;20443;-57
2022/05/30 13:45:31;;;;;;;2.63;2.07;;;21.90;43.90;;;;;;5095504;28;20430;-57